Tuesday, February 20, 2018, 4:36 AM EST
Back to Local

KRME, Griffiss Airfield

Location: Rome, NY, United States Lat: 43.233
Local Time: 4:36 AM EST ( 9:36 GMT) Lon: -75.4
Time Zone: US/Eastern Elev: 505 ft

Show me the last for .
Show Coded

Time T Td Feel RH Dir Speed Gust Alt SLP Vis Weather Sky Remarks
2018-02-20 03:53 45 43 40 92 90° 9 - 30.17 30.17 10 OVC031 1-hr Precip Total: 0.02"
6-hr Precip Total (4am): 0.10"
2018-02-20 02:53 44 43 39 95 100° 10 - 30.16 30.17 7 RA OVC033 1-hr Precip Total: 0.04"
2018-02-20 01:53 43 43 37 100 90° 10 - 30.16 30.17 10 -RA FEW021 SCT065 OVC080 1-hr Precip Total: 0.04"
2018-02-20 01:00 42 42 37 100 100° 9 - 30.16 - 5 -RA BR FEW019 BKN030 OVC041 1-hr Precip Total: Trace
2018-02-20 00:53 43 42 37 96 100° 10 - 30.16 30.16 3 +RA BR SCT019 BKN028 OVC045 1-hr Precip Total: 0.09"
6-hr Precip Total (1am): 0.34"
6-hr Min Temp (1am): 37.9°F
6-hr Max Temp (1am): 43.0°F
2018-02-19 23:53 42 41 36 95 90° 12 - 30.17 30.17 4 RA BR OVC024 1-hr Precip Total: 0.06"
24-hr Min Temp (12am): 24.1°F
24-hr Max Temp (12am): 42.1°F
2018-02-19 23:31 42 41 36 95 100° 12 - 30.17 - 4 -RA BR BKN022 OVC029 1-hr Precip Total: 0.02"
2018-02-19 22:53 42 41 37 95 100° 9 - 30.17 30.17 8 -RA FEW027 OVC032 1-hr Precip Total: 0.03"
2018-02-19 22:05 41 40 35 95 100° 10 - 30.17 - 10 -RA BKN025 OVC031 1-hr Precip Total: Trace
2018-02-19 21:53 41 39 34 92 90° 12 - 30.17 30.18 10 -RA OVC030 1-hr Precip Total: 0.02"
6-hr Precip Total (10pm): 0.16"
2018-02-19 20:53 38 38 31 100 110° 9 - 30.17 30.17 9 -RA SCT026 OVC034 1-hr Precip Total: 0.03"
2018-02-19 20:39 39 38 33 95 100° 9 - 30.17 - 8 -RA FEW017 BKN026 OVC034 1-hr Precip Total: 0.03"
2018-02-19 20:31 40 38 33 92 90° 10 - 30.17 - 10 -RA SCT021 BKN031 OVC040 1-hr Precip Total: 0.03"
2018-02-19 19:53 39 38 32 95 90° 10 - 30.18 30.19 6 RA BR OVC017 1-hr Precip Total: 0.11"
2018-02-19 18:53 39 38 33 95 90° 9 - 30.22 30.23 5 RA BR OVC018 1-hr Precip Total: 0.09"
6-hr Precip Total (7pm): 0.40"
6-hr Min Temp (7pm): 37.0°F
6-hr Max Temp (7pm): 42.1°F
2018-02-19 17:53 38 37 31 96 100° 9 - 30.21 30.22 7 -RA OVC021 1-hr Precip Total: 0.03"
2018-02-19 16:53 38 37 32 96 110° 8 - 30.20 30.21 3 RA BR OVC016 1-hr Precip Total: 0.09"
2018-02-19 15:53 37 36 31 95 100° 8 - 30.22 30.23 4 -RA BR OVC018 1-hr Precip Total: 0.11"
6-hr Precip Total (4pm): 0.19"
2018-02-19 15:34 38 36 32 92 100° 8 - 30.23 - 2 RA BR OVC020 1-hr Precip Total: 0.09"
2018-02-19 15:20 37 36 31 95 100° 8 - 30.23 - 1 +RA BR OVC022 1-hr Precip Total: 0.06"
2018-02-19 15:10 38 35 33 89 110° 7 - 30.23 - 3 RA BR OVC022 1-hr Precip Total: 0.04"
2018-02-19 15:02 37 35 33 92 100° 5 - 30.22 - 2 +RA BR OVC024 1-hr Precip Total: 0.03"
2018-02-19 14:53 37 35 31 92 110° 8 - 30.21 30.22 3 +RA BR OVC025 1-hr Precip Total: 0.08"
2018-02-19 14:25 39 33 34 79 110° 7 - 30.22 - 7 -RA OVC029 1-hr Precip Total: 0.02"
2018-02-19 13:53 40 31 34 69 120° 8 - 30.23 30.24 10 -RA OVC034 1-hr Precip Total: Trace
2018-02-19 12:53 42 31 36 64 160° 12 - 30.23 30.24 10 -RA BKN034 OVC065 1-hr Precip Total: Trace
6-hr Precip Total (1pm): 0.00"
6-hr Min Temp (1pm): 25.0°F
6-hr Max Temp (1pm): 42.1°F
2018-02-19 11:53 42 30 36 62 150° 10 - 30.27 30.29 10 SCT090 None
2018-02-19 10:53 40 28 33 62 110° 10 - 30.30 30.32 10 SCT100 None
2018-02-19 09:53 38 26 33 61 100° 7 - 30.32 30.33 10 CLR None
2018-02-19 08:53 32 22 25 65 110° 8 - 30.35 30.36 10 CLR None
2018-02-19 07:53 28 20 21 71 130° 7 - 30.37 30.38 10 CLR None
2018-02-19 06:53 24 19 16 80 130° 7 - 30.36 30.37 10 CLR 6-hr Min Temp (7am): 24.1°F
6-hr Max Temp (7am): 28.0°F
2018-02-19 05:53 28 20 18 71 110° 12 - 30.35 30.36 10 CLR None
2018-02-19 04:53 27 20 17 74 120° 12 - 30.37 30.38 10 CLR None

Support USWX by starting your Amazon purchase here.